Time;durP1;ratioP1;P1;durP2;ratioP2;P2;SDS_P1;SDS_P2;PMS_P1;PMS_P2;Temp;Humidity;BMP_temperature;BMP_pressure;BME280_temperature;BME280_humidity;BME280_pressure;Samples;Min_cycle;Max_cycle;Signal;HPM_P1;HPM_P2
2021/05/07 00:00:08;;;;;;;0.87;0.80;;;15.40;99.90;;;;;;20660161;28;20305;-81
2021/05/07 00:10:13;;;;;;;0.63;0.63;;;15.40;99.90;;;;;;20691572;28;21054;-79
2021/05/07 00:20:16;;;;;;;0.20;0.10;;;15.30;99.90;;;;;;20690790;28;20202;-79
2021/05/07 00:30:21;;;;;;;1.07;0.97;;;15.40;99.90;;;;;;20690155;28;20238;-77
2021/05/07 00:40:23;;;;;;;1.63;0.53;;;15.50;99.90;;;;;;20705968;28;20733;-78
2021/05/07 00:50:28;;;;;;;0.27;0.27;;;15.20;99.90;;;;;;20710479;28;20546;-80
2021/05/07 01:00:34;;;;;;;0.30;0.30;;;15.50;99.90;;;;;;20692583;28;20226;-79
2021/05/07 01:10:37;;;;;;;0.93;0.67;;;15.60;99.90;;;;;;20703751;28;20223;-78
2021/05/07 01:20:41;;;;;;;0.60;0.60;;;15.40;99.90;;;;;;20694668;28;20203;-77
2021/05/07 01:30:47;;;;;;;1.03;0.83;;;15.60;99.90;;;;;;20702777;28;20235;-80
2021/05/07 01:40:52;;;;;;;0.77;0.77;;;15.30;99.90;;;;;;20705051;28;20201;-79
2021/05/07 01:50:56;;;;;;;0.20;0.13;;;15.10;99.90;;;;;;20704087;28;20229;-78
2021/05/07 02:01:02;;;;;;;0.30;0.30;;;14.90;99.90;;;;;;20700600;28;20227;-76
2021/05/07 02:11:04;;;;;;;0.50;0.50;;;14.90;99.90;;;;;;20697684;28;20230;-79
2021/05/07 02:21:10;;;;;;;0.73;0.30;;;14.80;99.90;;;;;;20696545;28;20191;-76
2021/05/07 02:31:13;;;;;;;0.73;0.60;;;15.00;99.90;;;;;;20695019;28;20230;-78
2021/05/07 02:41:17;;;;;;;0.30;0.20;;;14.80;99.90;;;;;;20695811;28;20199;-79
2021/05/07 02:51:20;;;;;;;2.53;0.90;;;14.80;99.90;;;;;;20693416;28;20246;-80
2021/05/07 03:01:23;;;;;;;0.70;0.70;;;14.90;99.90;;;;;;20677595;28;20495;-80
2021/05/07 03:11:26;;;;;;;0.70;0.70;;;15.00;99.90;;;;;;20692712;28;20280;-79
2021/05/07 03:21:29;;;;;;;0.77;0.77;;;15.00;99.90;;;;;;20674828;28;20599;-78
2021/05/07 03:31:34;;;;;;;1.20;0.90;;;14.80;99.90;;;;;;20692972;28;20230;-79
2021/05/07 03:41:37;;;;;;;0.83;0.53;;;14.70;99.90;;;;;;20691584;28;20553;-79
2021/05/07 03:51:40;;;;;;;0.43;0.43;;;14.60;99.90;;;;;;20691382;28;20333;-80
2021/05/07 04:01:44;;;;;;;0.67;0.67;;;14.60;99.90;;;;;;20684785;28;20226;-79
2021/05/07 04:11:56;;;;;;;2.20;0.87;;;14.40;99.90;;;;;;20698240;28;20250;-78
2021/05/07 04:22:00;;;;;;;1.07;0.97;;;14.50;99.90;;;;;;20713965;28;20205;-78
2021/05/07 04:32:03;;;;;;;0.80;0.67;;;14.30;99.90;;;;;;20693399;28;20227;-79
2021/05/07 04:42:08;;;;;;;0.50;0.33;;;14.50;99.90;;;;;;20709703;28;20214;-78
2021/05/07 04:52:10;;;;;;;2.07;1.17;;;14.40;99.90;;;;;;20709263;28;20238;-80
2021/05/07 05:02:14;;;;;;;0.47;0.47;;;14.30;99.90;;;;;;20710613;28;20976;-79
2021/05/07 05:12:18;;;;;;;3.23;1.03;;;14.50;99.90;;;;;;20710116;28;20257;-78
2021/05/07 05:22:23;;;;;;;0.70;0.30;;;14.60;99.90;;;;;;20709671;28;20206;-78
2021/05/07 05:32:29;;;;;;;0.53;0.50;;;14.90;99.90;;;;;;20700980;28;20235;-79
2021/05/07 05:42:33;;;;;;;1.23;1.13;;;15.20;99.90;;;;;;20718581;28;20206;-79
2021/05/07 05:52:36;;;;;;;0.37;0.37;;;15.50;99.90;;;;;;20729547;28;20696;-80
2021/05/07 06:02:39;;;;;;;1.80;1.37;;;15.80;99.90;;;;;;20708042;28;20233;-74
2021/05/07 06:12:44;;;;;;;2.63;1.90;;;16.30;99.90;;;;;;20714114;28;20769;-82
2021/05/07 06:22:48;;;;;;;2.30;1.17;;;16.60;99.90;;;;;;20683682;28;20541;-75
2021/05/07 06:32:51;;;;;;;1.03;0.80;;;16.80;99.90;;;;;;20699509;28;20242;-79
2021/05/07 06:42:54;;;;;;;4.37;1.50;;;17.00;99.90;;;;;;20682797;28;20210;-77
2021/05/07 06:53:01;;;;;;;1.50;1.00;;;17.60;99.90;;;;;;20697170;28;20226;-78
2021/05/07 07:03:05;;;;;;;0.87;0.87;;;17.70;99.90;;;;;;20697091;28;20234;-78
2021/05/07 07:13:08;;;;;;;1.80;1.67;;;17.70;99.90;;;;;;20702650;28;20202;-74
2021/05/07 07:23:12;;;;;;;1.73;1.63;;;18.00;99.90;;;;;;20700110;28;20198;-78
2021/05/07 07:33:15;;;;;;;2.77;1.30;;;17.90;99.90;;;;;;20698216;28;20202;-75
2021/05/07 07:43:21;;;;;;;5.73;1.97;;;17.60;99.90;;;;;;20697298;28;20305;-77
2021/05/07 07:53:25;;;;;;;0.70;0.70;;;17.90;99.90;;;;;;20697223;28;20187;-77
2021/05/07 08:03:28;;;;;;;2.40;1.03;;;18.40;99.90;;;;;;20694328;28;20258;-70
2021/05/07 08:13:31;;;;;;;1.30;1.20;;;18.90;99.90;;;;;;20690891;28;20213;-71
2021/05/07 08:23:35;;;;;;;0.93;0.90;;;19.60;99.90;;;;;;20685875;28;20230;-75
2021/05/07 08:33:38;;;;;;;0.37;0.37;;;19.70;99.90;;;;;;20690254;28;20670;-74
2021/05/07 08:43:41;;;;;;;0.47;0.40;;;19.50;99.90;;;;;;20687524;28;20219;-74
2021/05/07 08:53:44;;;;;;;3.00;1.03;;;19.40;99.90;;;;;;20691247;28;20203;-75
2021/05/07 09:04:11;;;;;;;1.80;1.67;;;19.30;99.90;;;;;;20687822;28;20230;-76
2021/05/07 09:14:14;;;;;;;0.77;0.77;;;19.50;99.90;;;;;;20622534;28;20203;-75
2021/05/07 09:24:18;;;;;;;1.63;1.13;;;19.40;99.90;;;;;;20621717;28;20230;-77
2021/05/07 09:34:22;;;;;;;1.10;1.10;;;19.50;99.90;;;;;;20618878;28;20203;-74
2021/05/07 09:44:28;;;;;;;1.43;1.07;;;19.50;99.90;;;;;;20603979;28;20227;-73
2021/05/07 09:54:31;;;;;;;1.43;1.33;;;20.40;99.90;;;;;;20619407;28;20199;-76
2021/05/07 10:04:35;;;;;;;0.70;0.70;;;20.20;99.90;;;;;;20662090;28;20733;-72
2021/05/07 10:14:44;;;;;;;4.27;1.37;;;19.90;99.90;;;;;;20700953;28;20555;-78
2021/05/07 10:24:49;;;;;;;2.17;1.97;;;20.10;99.90;;;;;;20699403;28;20683;-75
2021/05/07 10:34:51;;;;;;;0.50;0.50;;;21.00;99.90;;;;;;20718405;28;20631;-78
2021/05/07 10:44:55;;;;;;;0.57;0.57;;;21.10;99.90;;;;;;20723340;28;20284;-74
2021/05/07 10:55:06;;;;;;;1.03;0.47;;;21.40;99.90;;;;;;20680607;28;20509;-76
2021/05/07 11:05:11;;;;;;;0.80;0.80;;;22.00;99.90;;;;;;20694133;28;20261;-75
2021/05/07 11:15:16;;;;;;;0.83;0.80;;;22.00;99.90;;;;;;20668884;28;20687;-79
2021/05/07 11:25:24;;;;;;;1.42;1.15;;;23.10;99.90;;;;;;20697411;28;20230;-79
2021/05/07 11:35:29;;;;;;;1.40;1.00;;;24.60;99.90;;;;;;20695581;28;20203;-78
2021/05/07 11:45:33;;;;;;;0.60;0.50;;;24.50;99.90;;;;;;20699937;28;20341;-77
2021/05/07 11:55:37;;;;;;;4.55;1.00;;;25.20;99.90;;;;;;20684215;28;20291;-78
2021/05/07 12:05:43;;;;;;;1.88;1.60;;;25.80;99.90;;;;;;20677684;28;20536;-83
2021/05/07 12:15:49;;;;;;;9.35;1.33;;;25.80;99.90;;;;;;20657226;28;20698;-76
2021/05/07 12:25:53;;;;;;;1.30;1.02;;;25.10;99.90;;;;;;20696688;28;20236;-80
2021/05/07 12:35:57;;;;;;;1.08;0.95;;;26.00;99.90;;;;;;20709784;28;20254;-79
2021/05/07 12:46:01;;;;;;;1.13;1.02;;;27.00;99.90;;;;;;20708269;28;20683;-72
2021/05/07 12:56:25;;;;;;;0.75;0.75;;;26.90;99.90;;;;;;20689746;28;20243;-71
2021/05/07 13:06:30;;;;;;;1.75;1.15;;;26.40;99.90;;;;;;20709234;28;20388;-78
2021/05/07 13:16:33;;;;;;;0.30;0.30;;;28.30;99.90;;;;;;20710070;28;20195;-79
2021/05/07 13:26:37;;;;;;;0.45;0.40;;;26.70;99.90;;;;;;20703884;28;20246;-77
2021/05/07 13:36:40;;;;;;;2.72;0.85;;;26.30;99.90;;;;;;20705916;28;20205;-78
2021/05/07 13:46:44;;;;;;;2.28;0.68;;;26.50;99.90;;;;;;20697758;28;20250;-74
2021/05/07 13:56:49;;;;;;;0.32;0.20;;;25.70;99.90;;;;;;20701320;28;20198;-75
2021/05/07 14:06:53;;;;;;;0.73;0.73;;;24.20;99.90;;;;;;20681804;28;20462;-76
2021/05/07 14:16:57;;;;;;;2.47;1.53;;;23.20;99.90;;;;;;20722782;28;20664;-78
2021/05/07 14:27:01;;;;;;;0.50;0.47;;;22.30;99.90;;;;;;20714810;28;20497;-76
2021/05/07 14:37:05;;;;;;;0.20;0.10;;;23.00;99.90;;;;;;20701917;28;20290;-80
2021/05/07 14:47:13;;;;;;;1.30;0.60;;;22.70;99.90;;;;;;20696716;28;20632;-75
2021/05/07 14:57:16;;;;;;;1.73;1.10;;;22.20;99.90;;;;;;20697800;28;20547;-78
2021/05/07 15:07:21;;;;;;;0.40;0.40;;;21.80;99.90;;;;;;20682902;28;20276;-78
2021/05/07 15:17:26;;;;;;;11.43;0.30;;;21.80;99.90;;;;;;20695301;28;20326;-80
2021/05/07 15:27:31;;;;;;;0.20;0.20;;;21.60;99.90;;;;;;20728348;28;20219;-78
2021/05/07 15:37:35;;;;;;;1.63;1.50;;;21.80;99.90;;;;;;20712786;28;20217;-80
2021/05/07 15:47:39;;;;;;;0.40;0.40;;;21.90;99.90;;;;;;20698418;28;20238;-77
2021/05/07 15:57:43;;;;;;;0.33;0.33;;;22.00;99.90;;;;;;20692344;28;20209;-76
2021/05/07 16:07:47;;;;;;;1.55;1.45;;;24.40;99.90;;;;;;20706671;28;20391;-78
2021/05/07 16:17:50;;;;;;;0.88;0.57;;;24.80;99.90;;;;;;20717219;28;20265;-78
2021/05/07 16:27:55;;;;;;;0.50;0.50;;;23.20;99.90;;;;;;20708121;28;20730;-78
2021/05/07 16:38:06;;;;;;;0.60;0.57;;;22.20;99.90;;;;;;20689905;28;20206;-78
2021/05/07 16:48:10;;;;;;;1.17;0.73;;;21.80;99.90;;;;;;20689397;28;20233;-75
2021/05/07 16:58:14;;;;;;;0.70;0.63;;;22.30;99.90;;;;;;20709226;28;20305;-76
2021/05/07 17:08:18;;;;;;;1.07;1.07;;;22.90;99.90;;;;;;20705976;28;20246;-74
2021/05/07 17:18:21;;;;;;;0.55;0.55;;;23.60;99.90;;;;;;20710276;28;20217;-76
2021/05/07 17:28:25;;;;;;;0.75;0.45;;;24.70;99.90;;;;;;20683847;28;20631;-77
2021/05/07 17:38:28;;;;;;;2.95;0.77;;;24.10;99.90;;;;;;20705151;28;20788;-76
2021/05/07 17:48:36;;;;;;;2.63;0.47;;;23.90;99.90;;;;;;20701390;28;20226;-83
2021/05/07 17:58:39;;;;;;;1.17;0.87;;;23.50;99.90;;;;;;20701309;28;20195;-76
2021/05/07 18:08:42;;;;;;;1.70;0.90;;;21.50;99.90;;;;;;20681753;28;20234;-77
2021/05/07 18:18:45;;;;;;;1.33;1.23;;;20.80;99.90;;;;;;20708847;28;20968;-76
2021/05/07 18:28:49;;;;;;;2.33;1.70;;;20.60;99.90;;;;;;20699489;28;20238;-74
2021/05/07 18:38:52;;;;;;;4.73;3.80;;;20.60;99.90;;;;;;20698831;28;20248;-74
2021/05/07 18:48:56;;;;;;;1.60;1.50;;;20.30;99.90;;;;;;20695662;28;20302;-72
2021/05/07 18:58:59;;;;;;;1.37;1.27;;;19.90;99.90;;;;;;20693723;28;20921;-74
2021/05/07 19:09:04;;;;;;;1.43;1.33;;;19.50;99.90;;;;;;20694769;28;20704;-73
2021/05/07 19:19:08;;;;;;;0.97;0.77;;;19.40;99.90;;;;;;20690687;28;20716;-75
2021/05/07 19:29:15;;;;;;;0.70;0.50;;;19.40;99.90;;;;;;20697008;28;20234;-73
2021/05/07 19:39:18;;;;;;;0.90;0.90;;;18.90;99.90;;;;;;20691557;28;20258;-74
2021/05/07 19:49:24;;;;;;;0.70;0.70;;;18.70;99.90;;;;;;20690393;28;20746;-72
2021/05/07 19:59:29;;;;;;;1.30;1.07;;;18.20;99.90;;;;;;20686844;28;20432;-75
2021/05/07 20:09:32;;;;;;;6.33;2.37;;;18.00;99.90;;;;;;20689333;28;20211;-76
2021/05/07 20:19:36;;;;;;;0.90;0.73;;;17.70;99.90;;;;;;20698294;28;20229;-77
2021/05/07 20:29:40;;;;;;;1.60;0.63;;;17.60;99.90;;;;;;20714089;28;20590;-75
2021/05/07 20:39:44;;;;;;;0.77;0.73;;;17.40;99.90;;;;;;20691076;28;20191;-76
2021/05/07 20:49:47;;;;;;;0.70;0.27;;;17.30;99.90;;;;;;20674896;28;20701;-77
2021/05/07 20:59:51;;;;;;;3.57;0.50;;;17.10;99.90;;;;;;20704214;28;20229;-76
2021/05/07 21:09:56;;;;;;;0.20;0.20;;;17.10;99.90;;;;;;20689719;28;20222;-75
2021/05/07 21:19:59;;;;;;;0.40;0.40;;;16.90;99.90;;;;;;20704186;28;20203;-77
2021/05/07 21:30:04;;;;;;;0.47;0.37;;;16.70;99.90;;;;;;20704620;28;20241;-75
2021/05/07 21:40:09;;;;;;;0.40;0.40;;;16.70;99.90;;;;;;20687586;28;20669;-73
2021/05/07 21:50:15;;;;;;;0.20;0.10;;;16.70;99.90;;;;;;20683642;28;20279;-77
2021/05/07 22:00:37;;;;;;;0.30;0.20;;;16.70;99.90;;;;;;20701681;28;20239;-81
2021/05/07 22:10:42;;;;;;;0.30;0.30;;;16.30;99.90;;;;;;20716361;28;20228;-79
2021/05/07 22:20:45;;;;;;;0.60;0.47;;;16.20;99.90;;;;;;20700063;28;20555;-80
2021/05/07 22:30:50;;;;;;;0.43;0.43;;;16.00;99.90;;;;;;20697003;28;20300;-77
2021/05/07 22:40:54;;;;;;;0.20;0.00;;;15.80;99.90;;;;;;20616971;28;20195;-77
2021/05/07 22:50:59;;;;;;;0.20;0.20;;;15.80;99.90;;;;;;20599332;28;20227;-80
2021/05/07 23:01:02;;;;;;;0.50;0.20;;;15.70;99.90;;;;;;20614165;28;20215;-76
2021/05/07 23:11:06;;;;;;;0.20;0.10;;;15.60;99.90;;;;;;20694786;28;20218;-76
2021/05/07 23:21:09;;;;;;;1.43;0.40;;;15.40;99.90;;;;;;20712792;28;20202;-77
2021/05/07 23:31:12;;;;;;;0.50;0.30;;;15.50;99.90;;;;;;20696330;28;20376;-76
2021/05/07 23:41:15;;;;;;;0.20;0.10;;;15.30;99.90;;;;;;20694762;28;20699;-75
2021/05/07 23:51:19;;;;;;;0.20;0.20;;;15.30;99.90;;;;;;20678475;28;20230;-77
